Main page
METAR-TAF:

METAR-TAF

Airports :

Dubai, United Arab Emirates

Dubai International Airport

latitude: 25-15-10N, longitude: 055-21-52E, elevation: 8 m

Current weather observation

The report was made 15 minutes ago, at 17:00 UTC
Wind 5 kt from the Northwest, varying between West/Northwest and North
Temperature 36°C
Humidity 47%
Pressure 999 hPa
Visibility 10 km or more
no clouds below 1500 m and no cumulonimbus

METAR: OMDB 231700Z 31005KT 290V360 CAVOK 36/23 Q0999 NOSIG

Time: 21:15 (17:15 UTC)

Forecast

The report was made 6 hours and 15 minutes ago, at 11:00 UTC
Forecast valid from 23 at 12 UTC to 24 at 18 UTC
Wind 11 kt from the Northwest
Visibility: 8000 m
Becoming
from 23 at 15 UTC to 23 at 17 UTC
Wind 5 kt from the South
Becoming
from 24 at 06 UTC to 24 at 08 UTC
Wind 13 kt from the Northwest
Becoming
from 24 at 15 UTC to 24 at 17 UTC
Wind 2 kt from variable directions

TAF: OMDB 231100Z 2312/2418 31011KT 8000 NSC BECMG 2315/2317 19005KT BECMG 2406/2408 32013KT BECMG 2415/2417 VRB02KT

Weather observations and forecasts of more than 4000 airports (METAR and TAF reports).

The available stations are represented by yellow and red dots on the map.

Hover mouse over dot to see the name of the station.

Then click to see weather observations and forecasts.

To change the map : click on the green buttons with a black cross to zoom in, on the green button with a dash to zoom out, or on the green arrows for adjacent maps.


METAR-TAF: